sensor_id;sensor_type;location;lat;lon;timestamp;pressure;altitude;pressure_sealevel;temperature;humidity
23589;BME280;11972;48.078;11.876;2023-03-15T00:02:17;94692.94;;;0.81;100.00
23589;BME280;11972;48.078;11.876;2023-03-15T00:06:17;94671.25;;;0.90;100.00
23589;BME280;11972;48.078;11.876;2023-03-15T00:10:18;94674.56;;;0.92;100.00
23589;BME280;11972;48.078;11.876;2023-03-15T00:14:19;94674.56;;;0.92;100.00
23589;BME280;11972;48.078;11.876;2023-03-15T00:18:19;94683.53;;;1.08;100.00
23589;BME280;11972;48.078;11.876;2023-03-15T00:22:20;94673.38;;;1.32;100.00
23589;BME280;11972;48.078;11.876;2023-03-15T00:26:22;94669.09;;;1.59;100.00
23589;BME280;11972;48.078;11.876;2023-03-15T00:30:22;94664.72;;;1.77;100.00
23589;BME280;11972;48.078;11.876;2023-03-15T00:34:22;94655.25;;;1.94;100.00
23589;BME280;11972;48.078;11.876;2023-03-15T00:38:25;94654.53;;;2.10;100.00
23589;BME280;11972;48.078;11.876;2023-03-15T00:42:27;94667.69;;;2.26;100.00
23589;BME280;11972;48.078;11.876;2023-03-15T00:46:27;94674.00;;;2.41;100.00
23589;BME280;11972;48.078;11.876;2023-03-15T00:50:28;94679.94;;;2.52;100.00
23589;BME280;11972;48.078;11.876;2023-03-15T00:54:28;94687.94;;;2.58;100.00
23589;BME280;11972;48.078;11.876;2023-03-15T00:58:28;94683.72;;;2.57;100.00
23589;BME280;11972;48.078;11.876;2023-03-15T01:02:29;94684.22;;;2.35;100.00
23589;BME280;11972;48.078;11.876;2023-03-15T01:06:30;94661.25;;;2.12;100.00
23589;BME280;11972;48.078;11.876;2023-03-15T01:10:33;94658.41;;;2.06;100.00
23589;BME280;11972;48.078;11.876;2023-03-15T01:14:34;94655.69;;;2.07;100.00
23589;BME280;11972;48.078;11.876;2023-03-15T01:18:36;94662.75;;;2.15;100.00
23589;BME280;11972;48.078;11.876;2023-03-15T01:22:37;94722.16;;;1.93;100.00
23589;BME280;11972;48.078;11.876;2023-03-15T01:26:37;94764.03;;;0.90;100.00
23589;BME280;11972;48.078;11.876;2023-03-15T01:30:37;94745.69;;;0.44;100.00
23589;BME280;11972;48.078;11.876;2023-03-15T01:34:38;94729.72;;;0.30;100.00
23589;BME280;11972;48.078;11.876;2023-03-15T01:38:38;94712.38;;;0.30;100.00
23589;BME280;11972;48.078;11.876;2023-03-15T01:47:02;94695.53;;;0.24;100.00
23589;BME280;11972;48.078;11.876;2023-03-15T01:55:21;94667.13;;;0.23;100.00
23589;BME280;11972;48.078;11.876;2023-03-15T01:59:31;94683.41;;;0.25;100.00
23589;BME280;11972;48.078;11.876;2023-03-15T02:03:39;94698.00;;;0.26;100.00
23589;BME280;11972;48.078;11.876;2023-03-15T02:07:47;94701.00;;;0.31;100.00
23589;BME280;11972;48.078;11.876;2023-03-15T02:11:54;94716.31;;;0.34;100.00
23589;BME280;11972;48.078;11.876;2023-03-15T02:15:56;94722.34;;;0.35;100.00
23589;BME280;11972;48.078;11.876;2023-03-15T02:20:06;94733.53;;;0.35;100.00
23589;BME280;11972;48.078;11.876;2023-03-15T02:24:24;94731.09;;;0.34;100.00
23589;BME280;11972;48.078;11.876;2023-03-15T02:28:28;94748.31;;;0.35;100.00
23589;BME280;11972;48.078;11.876;2023-03-15T02:32:29;94757.75;;;0.36;100.00
23589;BME280;11972;48.078;11.876;2023-03-15T02:36:30;94768.00;;;0.37;100.00
23589;BME280;11972;48.078;11.876;2023-03-15T02:40:32;94777.44;;;0.38;100.00
23589;BME280;11972;48.078;11.876;2023-03-15T02:44:35;94777.28;;;0.40;100.00
23589;BME280;11972;48.078;11.876;2023-03-15T02:48:37;94780.44;;;0.43;100.00
23589;BME280;11972;48.078;11.876;2023-03-15T02:52:38;94789.84;;;0.44;100.00
23589;BME280;11972;48.078;11.876;2023-03-15T02:56:38;94797.38;;;0.47;100.00
23589;BME280;11972;48.078;11.876;2023-03-15T03:00:38;94800.53;;;0.51;100.00
23589;BME280;11972;48.078;11.876;2023-03-15T03:04:39;94816.41;;;0.58;100.00
23589;BME280;11972;48.078;11.876;2023-03-15T03:08:40;94808.19;;;0.62;100.00
23589;BME280;11972;48.078;11.876;2023-03-15T03:12:41;94822.38;;;0.68;100.00
23589;BME280;11972;48.078;11.876;2023-03-15T03:16:42;94818.56;;;0.72;100.00
23589;BME280;11972;48.078;11.876;2023-03-15T03:20:42;94851.94;;;0.77;100.00
23589;BME280;11972;48.078;11.876;2023-03-15T03:24:45;94852.19;;;0.83;100.00
23589;BME280;11972;48.078;11.876;2023-03-15T03:28:46;94870.25;;;0.85;100.00
23589;BME280;11972;48.078;11.876;2023-03-15T03:32:47;94891.88;;;0.85;100.00
23589;BME280;11972;48.078;11.876;2023-03-15T03:36:47;94909.94;;;0.77;100.00
23589;BME280;11972;48.078;11.876;2023-03-15T03:40:47;94921.56;;;0.54;100.00
23589;BME280;11972;48.078;11.876;2023-03-15T03:44:48;94930.16;;;0.25;100.00
23589;BME280;11972;48.078;11.876;2023-03-15T03:48:49;94964.84;;;0.14;100.00
23589;BME280;11972;48.078;11.876;2023-03-15T03:52:50;94986.13;;;0.08;100.00
23589;BME280;11972;48.078;11.876;2023-03-15T03:56:51;94985.31;;;0.08;100.00
23589;BME280;11972;48.078;11.876;2023-03-15T04:00:51;94995.69;;;0.08;100.00
23589;BME280;11972;48.078;11.876;2023-03-15T04:04:53;95012.94;;;0.09;100.00
23589;BME280;11972;48.078;11.876;2023-03-15T04:08:53;95027.66;;;0.08;100.00
23589;BME280;11972;48.078;11.876;2023-03-15T04:12:54;95042.44;;;0.08;100.00
23589;BME280;11972;48.078;11.876;2023-03-15T04:16:55;95057.06;;;0.09;100.00
23589;BME280;11972;48.078;11.876;2023-03-15T04:20:56;95063.19;;;0.08;100.00
23589;BME280;11972;48.078;11.876;2023-03-15T04:24:56;95068.41;;;0.08;100.00
23589;BME280;11972;48.078;11.876;2023-03-15T04:28:57;95086.56;;;0.08;100.00
23589;BME280;11972;48.078;11.876;2023-03-15T04:32:58;95087.53;;;0.07;100.00
23589;BME280;11972;48.078;11.876;2023-03-15T04:36:58;95105.56;;;0.08;100.00
23589;BME280;11972;48.078;11.876;2023-03-15T04:40:58;95113.25;;;0.10;100.00
23589;BME280;11972;48.078;11.876;2023-03-15T04:44:59;95130.63;;;0.09;100.00
23589;BME280;11972;48.078;11.876;2023-03-15T04:48:59;95153.41;;;0.06;100.00
23589;BME280;11972;48.078;11.876;2023-03-15T04:53:00;95150.25;;;0.02;100.00
23589;BME280;11972;48.078;11.876;2023-03-15T04:57:00;95155.56;;;0.01;100.00
23589;BME280;11972;48.078;11.876;2023-03-15T05:01:01;95165.00;;;0.02;100.00
23589;BME280;11972;48.078;11.876;2023-03-15T05:05:01;95188.38;;;0.02;100.00
23589;BME280;11972;48.078;11.876;2023-03-15T05:09:01;95183.31;;;0.00;100.00
23589;BME280;11972;48.078;11.876;2023-03-15T05:13:03;95191.94;;;0.01;100.00
23589;BME280;11972;48.078;11.876;2023-03-15T05:17:03;95201.59;;;-0.02;100.00
23589;BME280;11972;48.078;11.876;2023-03-15T05:21:04;95206.94;;;-0.03;100.00
23589;BME280;11972;48.078;11.876;2023-03-15T05:25:05;95210.22;;;-0.01;100.00
23589;BME280;11972;48.078;11.876;2023-03-15T05:29:06;95218.94;;;-0.02;100.00
23589;BME280;11972;48.078;11.876;2023-03-15T05:33:06;95230.75;;;0.02;100.00
23589;BME280;11972;48.078;11.876;2023-03-15T05:37:07;95235.13;;;0.02;100.00
23589;BME280;11972;48.078;11.876;2023-03-15T05:41:08;95238.38;;;0.04;100.00
23589;BME280;11972;48.078;11.876;2023-03-15T05:45:09;95260.25;;;0.01;100.00
23589;BME280;11972;48.078;11.876;2023-03-15T05:49:09;95277.09;;;0.07;100.00
23589;BME280;11972;48.078;11.876;2023-03-15T05:53:10;95277.09;;;0.07;100.00
23589;BME280;11972;48.078;11.876;2023-03-15T05:57:10;95273.94;;;0.03;100.00
23589;BME280;11972;48.078;11.876;2023-03-15T06:01:10;95294.69;;;0.03;100.00
23589;BME280;11972;48.078;11.876;2023-03-15T06:05:11;95292.00;;;0.05;100.00
23589;BME280;11972;48.078;11.876;2023-03-15T06:09:11;95290.81;;;0.09;100.00
23589;BME280;11972;48.078;11.876;2023-03-15T06:13:14;95312.25;;;0.11;100.00
23589;BME280;11972;48.078;11.876;2023-03-15T06:17:14;95326.66;;;0.15;100.00
23589;BME280;11972;48.078;11.876;2023-03-15T06:21:14;95327.38;;;0.17;100.00
23589;BME280;11972;48.078;11.876;2023-03-15T06:25:15;95321.91;;;0.20;100.00
23589;BME280;11972;48.078;11.876;2023-03-15T06:29:15;95337.50;;;0.20;100.00
23589;BME280;11972;48.078;11.876;2023-03-15T06:33:16;95347.66;;;0.23;100.00
23589;BME280;11972;48.078;11.876;2023-03-15T06:37:17;95345.19;;;0.21;100.00
23589;BME280;11972;48.078;11.876;2023-03-15T06:41:17;95349.56;;;0.21;100.00
23589;BME280;11972;48.078;11.876;2023-03-15T06:45:17;95358.03;;;0.23;100.00
23589;BME280;11972;48.078;11.876;2023-03-15T06:49:18;95362.28;;;0.24;100.00
23589;BME280;11972;48.078;11.876;2023-03-15T06:53:18;95356.16;;;0.25;100.00
23589;BME280;11972;48.078;11.876;2023-03-15T06:57:18;95364.06;;;0.23;100.00
23589;BME280;11972;48.078;11.876;2023-03-15T07:01:19;95371.69;;;0.36;100.00
23589;BME280;11972;48.078;11.876;2023-03-15T07:05:19;95378.56;;;0.37;100.00
23589;BME280;11972;48.078;11.876;2023-03-15T07:09:19;95378.41;;;0.39;100.00
23589;BME280;11972;48.078;11.876;2023-03-15T07:13:20;95380.88;;;0.40;100.00
23589;BME280;11972;48.078;11.876;2023-03-15T07:17:20;95379.31;;;0.49;100.00
23589;BME280;11972;48.078;11.876;2023-03-15T07:21:21;95389.09;;;0.57;100.00
23589;BME280;11972;48.078;11.876;2023-03-15T07:25:21;95395.75;;;0.49;100.00
23589;BME280;11972;48.078;11.876;2023-03-15T07:29:23;95393.72;;;0.53;100.00
23589;BME280;11972;48.078;11.876;2023-03-15T07:33:24;95398.81;;;0.55;100.00
23589;BME280;11972;48.078;11.876;2023-03-15T07:37:27;95411.41;;;0.59;100.00
23589;BME280;11972;48.078;11.876;2023-03-15T07:41:28;95415.28;;;0.65;100.00
23589;BME280;11972;48.078;11.876;2023-03-15T07:45:28;95417.03;;;0.76;100.00
23589;BME280;11972;48.078;11.876;2023-03-15T07:49:28;95431.06;;;0.84;100.00
23589;BME280;11972;48.078;11.876;2023-03-15T07:53:30;95430.13;;;0.74;100.00
23589;BME280;11972;48.078;11.876;2023-03-15T07:57:30;95423.88;;;0.77;100.00
23589;BME280;11972;48.078;11.876;2023-03-15T08:01:31;95430.34;;;0.82;100.00
23589;BME280;11972;48.078;11.876;2023-03-15T08:05:32;95423.69;;;0.89;100.00
23589;BME280;11972;48.078;11.876;2023-03-15T08:09:33;95434.69;;;0.93;100.00
23589;BME280;11972;48.078;11.876;2023-03-15T08:13:33;95430.25;;;1.05;100.00
23589;BME280;11972;48.078;11.876;2023-03-15T08:17:35;95420.91;;;1.02;100.00
23589;BME280;11972;48.078;11.876;2023-03-15T08:21:36;95421.28;;;0.97;100.00
23589;BME280;11972;48.078;11.876;2023-03-15T08:25:36;95429.00;;;0.99;100.00
23589;BME280;11972;48.078;11.876;2023-03-15T08:29:39;95429.81;;;0.99;100.00
23589;BME280;11972;48.078;11.876;2023-03-15T08:33:40;95422.09;;;0.98;100.00
23589;BME280;11972;48.078;11.876;2023-03-15T08:37:40;95436.66;;;1.01;100.00
23589;BME280;11972;48.078;11.876;2023-03-15T08:41:41;95442.34;;;0.94;100.00
23589;BME280;11972;48.078;11.876;2023-03-15T08:45:42;95422.94;;;0.98;100.00
23589;BME280;11972;48.078;11.876;2023-03-15T08:49:42;95435.06;;;1.09;100.00
23589;BME280;11972;48.078;11.876;2023-03-15T08:53:43;95417.81;;;1.29;100.00
23589;BME280;11972;48.078;11.876;2023-03-15T08:57:43;95424.00;;;1.59;100.00
23589;BME280;11972;48.078;11.876;2023-03-15T09:01:44;95426.16;;;1.84;100.00
23589;BME280;11972;48.078;11.876;2023-03-15T09:05:44;95423.47;;;1.95;100.00
23589;BME280;11972;48.078;11.876;2023-03-15T09:09:45;95426.22;;;1.94;100.00
23589;BME280;11972;48.078;11.876;2023-03-15T09:13:47;95415.28;;;2.10;100.00
23589;BME280;11972;48.078;11.876;2023-03-15T09:17:49;95407.97;;;2.73;100.00
23589;BME280;11972;48.078;11.876;2023-03-15T09:21:50;95419.50;;;2.99;100.00
23589;BME280;11972;48.078;11.876;2023-03-15T09:25:50;95422.25;;;3.08;100.00
23589;BME280;11972;48.078;11.876;2023-03-15T09:29:51;95426.91;;;2.75;100.00
23589;BME280;11972;48.078;11.876;2023-03-15T09:33:51;95411.28;;;2.85;100.00
23589;BME280;11972;48.078;11.876;2023-03-15T09:37:51;95415.63;;;3.42;100.00
23589;BME280;11972;48.078;11.876;2023-03-15T09:41:56;95407.81;;;3.70;100.00
23589;BME280;11972;48.078;11.876;2023-03-15T09:46:20;95412.00;;;3.90;100.00
23589;BME280;11972;48.078;11.876;2023-03-15T09:50:48;95416.97;;;4.21;100.00
23589;BME280;11972;48.078;11.876;2023-03-15T09:54:55;95422.47;;;4.18;100.00
23589;BME280;11972;48.078;11.876;2023-03-15T09:58:59;95413.84;;;3.80;100.00
23589;BME280;11972;48.078;11.876;2023-03-15T10:03:01;95409.22;;;4.02;100.00
23589;BME280;11972;48.078;11.876;2023-03-15T10:07:13;95418.25;;;4.35;100.00
23589;BME280;11972;48.078;11.876;2023-03-15T10:11:33;95424.78;;;3.93;100.00
23589;BME280;11972;48.078;11.876;2023-03-15T10:15:40;95424.34;;;3.61;100.00
23589;BME280;11972;48.078;11.876;2023-03-15T10:19:48;95427.03;;;3.32;100.00
23589;BME280;11972;48.078;11.876;2023-03-15T10:23:52;95415.63;;;3.42;100.00
23589;BME280;11972;48.078;11.876;2023-03-15T10:28:09;95418.47;;;3.86;100.00
23589;BME280;11972;48.078;11.876;2023-03-15T10:32:19;95425.56;;;4.59;100.00
23589;BME280;11972;48.078;11.876;2023-03-15T10:36:23;95430.59;;;4.70;100.00
23589;BME280;11972;48.078;11.876;2023-03-15T10:40:41;95413.78;;;4.90;100.00
23589;BME280;11972;48.078;11.876;2023-03-15T10:44:41;95410.31;;;5.08;100.00
23589;BME280;11972;48.078;11.876;2023-03-15T10:48:53;95400.38;;;5.11;100.00
23589;BME280;11972;48.078;11.876;2023-03-15T10:52:57;95406.56;;;5.28;100.00
23589;BME280;11972;48.078;11.876;2023-03-15T10:57:11;95410.31;;;5.08;100.00
23589;BME280;11972;48.078;11.876;2023-03-15T11:01:24;95412.47;;;4.77;100.00
23589;BME280;11972;48.078;11.876;2023-03-15T11:05:29;95417.09;;;4.47;100.00
23589;BME280;11972;48.078;11.876;2023-03-15T11:09:43;95402.19;;;4.30;100.00
23589;BME280;11972;48.078;11.876;2023-03-15T11:13:58;95410.03;;;4.75;100.00
23589;BME280;11972;48.078;11.876;2023-03-15T11:18:00;95400.56;;;5.18;100.00
23589;BME280;11972;48.078;11.876;2023-03-15T11:22:01;95395.91;;;5.47;100.00
23589;BME280;11972;48.078;11.876;2023-03-15T11:26:02;95386.22;;;5.74;100.00
23589;BME280;11972;48.078;11.876;2023-03-15T11:30:03;95395.59;;;6.11;100.00
23589;BME280;11972;48.078;11.876;2023-03-15T11:38:17;95365.91;;;6.77;100.00
23589;BME280;11972;48.078;11.876;2023-03-15T11:47:02;95375.22;;;6.39;100.00
23589;BME280;11972;48.078;11.876;2023-03-15T11:51:05;95371.81;;;6.63;100.00
23589;BME280;11972;48.078;11.876;2023-03-15T11:55:15;95363.25;;;6.44;100.00
23589;BME280;11972;48.078;11.876;2023-03-15T11:59:37;95369.25;;;6.29;100.00
23589;BME280;11972;48.078;11.876;2023-03-15T12:03:41;95360.81;;;6.09;100.00
23589;BME280;11972;48.078;11.876;2023-03-15T12:07:57;95345.59;;;5.78;100.00
23589;BME280;11972;48.078;11.876;2023-03-15T12:12:00;95361.88;;;5.90;100.00
23589;BME280;11972;48.078;11.876;2023-03-15T12:16:05;95344.22;;;6.42;100.00
23589;BME280;11972;48.078;11.876;2023-03-15T12:20:12;95344.28;;;7.00;100.00
23589;BME280;11972;48.078;11.876;2023-03-15T12:24:24;95341.59;;;6.34;100.00
23589;BME280;11972;48.078;11.876;2023-03-15T12:28:34;95350.25;;;5.84;100.00
23589;BME280;11972;48.078;11.876;2023-03-15T12:32:44;95338.69;;;5.69;100.00
23589;BME280;11972;48.078;11.876;2023-03-15T12:36:50;95331.84;;;6.10;100.00
23589;BME280;11972;48.078;11.876;2023-03-15T12:40:55;95330.47;;;6.65;100.00
23589;BME280;11972;48.078;11.876;2023-03-15T12:49:34;95325.22;;;6.81;100.00
23589;BME280;11972;48.078;11.876;2023-03-15T12:53:39;95325.06;;;6.91;100.00
23589;BME280;11972;48.078;11.876;2023-03-15T12:57:48;95323.91;;;6.69;100.00
23589;BME280;11972;48.078;11.876;2023-03-15T13:01:50;95330.94;;;7.42;100.00
23589;BME280;11972;48.078;11.876;2023-03-15T13:10:15;95333.06;;;7.46;100.00
23589;BME280;11972;48.078;11.876;2023-03-15T13:14:41;95319.25;;;7.44;100.00
23589;BME280;11972;48.078;11.876;2023-03-15T13:18:53;95318.97;;;7.31;100.00
23589;BME280;11972;48.078;11.876;2023-03-15T13:23:38;95327.88;;;6.97;100.00
23589;BME280;11972;48.078;11.876;2023-03-15T13:27:49;95330.50;;;6.89;100.00
23589;BME280;11972;48.078;11.876;2023-03-15T13:32:11;95333.59;;;6.85;100.00
23589;BME280;11972;48.078;11.876;2023-03-15T13:36:17;95330.50;;;7.06;100.00
23589;BME280;11972;48.078;11.876;2023-03-15T13:40:19;95348.88;;;7.14;100.00
23589;BME280;11972;48.078;11.876;2023-03-15T13:44:21;95335.56;;;6.99;100.00
23589;BME280;11972;48.078;11.876;2023-03-15T13:48:25;95336.22;;;6.60;100.00
23589;BME280;11972;48.078;11.876;2023-03-15T13:52:26;95344.28;;;6.75;100.00
23589;BME280;11972;48.078;11.876;2023-03-15T13:56:31;95359.03;;;6.68;100.00
23589;BME280;11972;48.078;11.876;2023-03-15T14:00:35;95356.78;;;6.14;100.00
23589;BME280;11972;48.078;11.876;2023-03-15T14:04:36;95350.25;;;6.27;100.00
23589;BME280;11972;48.078;11.876;2023-03-15T14:08:38;95339.31;;;6.47;100.00
23589;BME280;11972;48.078;11.876;2023-03-15T14:12:39;95341.31;;;6.86;100.00
23589;BME280;11972;48.078;11.876;2023-03-15T14:16:42;95334.41;;;7.10;100.00
23589;BME280;11972;48.078;11.876;2023-03-15T14:20:46;95330.31;;;6.99;100.00
23589;BME280;11972;48.078;11.876;2023-03-15T14:24:49;95344.94;;;6.85;100.00
23589;BME280;11972;48.078;11.876;2023-03-15T14:28:57;95344.28;;;6.75;100.00
23589;BME280;11972;48.078;11.876;2023-03-15T14:33:01;95348.88;;;6.81;100.00
23589;BME280;11972;48.078;11.876;2023-03-15T14:37:22;95347.38;;;6.95;100.00
23589;BME280;11972;48.078;11.876;2023-03-15T14:45:27;95338.19;;;7.07;100.00
23589;BME280;11972;48.078;11.876;2023-03-15T14:49:27;95338.38;;;7.06;100.00
23589;BME280;11972;48.078;11.876;2023-03-15T14:53:33;95332.47;;;6.79;100.00
23589;BME280;11972;48.078;11.876;2023-03-15T14:57:33;95346.38;;;6.47;100.00
23589;BME280;11972;48.078;11.876;2023-03-15T15:01:34;95344.22;;;6.34;100.00
23589;BME280;11972;48.078;11.876;2023-03-15T15:05:34;95359.22;;;6.16;100.00
23589;BME280;11972;48.078;11.876;2023-03-15T15:09:35;95360.16;;;5.99;100.00
23589;BME280;11972;48.078;11.876;2023-03-15T15:13:37;95352.44;;;5.97;100.00
23589;BME280;11972;48.078;11.876;2023-03-15T15:17:37;95342.47;;;6.09;100.00
23589;BME280;11972;48.078;11.876;2023-03-15T15:21:38;95355.94;;;6.14;100.00
23589;BME280;11972;48.078;11.876;2023-03-15T15:25:38;95357.31;;;5.92;100.00
23589;BME280;11972;48.078;11.876;2023-03-15T15:29:39;95361.34;;;5.78;100.00
23589;BME280;11972;48.078;11.876;2023-03-15T15:33:39;95369.63;;;5.65;100.00
23589;BME280;11972;48.078;11.876;2023-03-15T15:37:44;95360.22;;;5.55;100.00
23589;BME280;11972;48.078;11.876;2023-03-15T15:41:44;95364.56;;;5.64;100.00
23589;BME280;11972;48.078;11.876;2023-03-15T15:45:45;95374.88;;;5.65;100.00
23589;BME280;11972;48.078;11.876;2023-03-15T15:49:45;95362.16;;;5.79;100.00
23589;BME280;11972;48.078;11.876;2023-03-15T15:53:46;95371.81;;;5.78;100.00
23589;BME280;11972;48.078;11.876;2023-03-15T15:57:48;95382.94;;;5.72;100.00
23589;BME280;11972;48.078;11.876;2023-03-15T16:01:48;95372.38;;;5.56;100.00
23589;BME280;11972;48.078;11.876;2023-03-15T16:05:49;95374.94;;;5.04;100.00
23589;BME280;11972;48.078;11.876;2023-03-15T16:09:53;95394.78;;;4.53;100.00
23589;BME280;11972;48.078;11.876;2023-03-15T16:13:55;95390.53;;;4.24;100.00
23589;BME280;11972;48.078;11.876;2023-03-15T16:17:55;95396.16;;;4.02;100.00
23589;BME280;11972;48.078;11.876;2023-03-15T16:21:55;95391.78;;;3.92;100.00
23589;BME280;11972;48.078;11.876;2023-03-15T16:25:56;95405.97;;;3.90;100.00
23589;BME280;11972;48.078;11.876;2023-03-15T16:29:56;95433.38;;;3.76;100.00
23589;BME280;11972;48.078;11.876;2023-03-15T16:33:57;95446.88;;;3.62;100.00
23589;BME280;11972;48.078;11.876;2023-03-15T16:37:57;95451.06;;;3.55;100.00
23589;BME280;11972;48.078;11.876;2023-03-15T16:41:58;95461.22;;;3.48;100.00
23589;BME280;11972;48.078;11.876;2023-03-15T16:45:58;95463.16;;;3.36;100.00
23589;BME280;11972;48.078;11.876;2023-03-15T16:49:59;95467.28;;;3.19;100.00
23589;BME280;11972;48.078;11.876;2023-03-15T16:53:59;95473.91;;;3.14;100.00
23589;BME280;11972;48.078;11.876;2023-03-15T16:58:02;95469.50;;;3.05;100.00
23589;BME280;11972;48.078;11.876;2023-03-15T17:02:14;95468.94;;;2.91;100.00
23589;BME280;11972;48.078;11.876;2023-03-15T17:06:18;95478.13;;;2.95;100.00
23589;BME280;11972;48.078;11.876;2023-03-15T17:10:30;95480.47;;;2.98;100.00
23589;BME280;11972;48.078;11.876;2023-03-15T17:14:30;95489.53;;;2.94;100.00
23589;BME280;11972;48.078;11.876;2023-03-15T17:18:33;95509.59;;;2.94;100.00
23589;BME280;11972;48.078;11.876;2023-03-15T17:22:33;95504.91;;;2.88;100.00
23589;BME280;11972;48.078;11.876;2023-03-15T17:26:34;95515.34;;;2.78;100.00
23589;BME280;11972;48.078;11.876;2023-03-15T17:30:35;95522.31;;;2.68;100.00
23589;BME280;11972;48.078;11.876;2023-03-15T17:34:36;95518.03;;;2.67;100.00
23589;BME280;11972;48.078;11.876;2023-03-15T17:38:36;95525.59;;;2.70;100.00
23589;BME280;11972;48.078;11.876;2023-03-15T17:42:41;95526.03;;;2.75;100.00
23589;BME280;11972;48.078;11.876;2023-03-15T17:46:41;95531.25;;;2.75;100.00
23589;BME280;11972;48.078;11.876;2023-03-15T17:50:42;95539.22;;;2.73;100.00
23589;BME280;11972;48.078;11.876;2023-03-15T17:54:44;95547.44;;;2.69;100.00
23589;BME280;11972;48.078;11.876;2023-03-15T17:58:45;95549.66;;;2.73;100.00
23589;BME280;11972;48.078;11.876;2023-03-15T18:02:48;95551.59;;;2.81;100.00
23589;BME280;11972;48.078;11.876;2023-03-15T18:06:49;95560.81;;;2.85;100.00
23589;BME280;11972;48.078;11.876;2023-03-15T18:10:50;95579.31;;;2.82;100.00
23589;BME280;11972;48.078;11.876;2023-03-15T18:14:50;95567.91;;;2.73;100.00
23589;BME280;11972;48.078;11.876;2023-03-15T18:18:51;95567.03;;;2.63;100.00
23589;BME280;11972;48.078;11.876;2023-03-15T18:22:51;95579.25;;;2.63;100.00
23589;BME280;11972;48.078;11.876;2023-03-15T18:26:51;95575.41;;;2.67;100.00
23589;BME280;11972;48.078;11.876;2023-03-15T18:30:52;95574.34;;;2.69;100.00
23589;BME280;11972;48.078;11.876;2023-03-15T18:34:53;95584.53;;;2.72;100.00
23589;BME280;11972;48.078;11.876;2023-03-15T18:38:54;95588.91;;;2.72;100.00
23589;BME280;11972;48.078;11.876;2023-03-15T18:42:55;95592.56;;;2.60;100.00
23589;BME280;11972;48.078;11.876;2023-03-15T18:46:56;95593.50;;;2.59;100.00
23589;BME280;11972;48.078;11.876;2023-03-15T18:50:56;95598.72;;;2.59;100.00
23589;BME280;11972;48.078;11.876;2023-03-15T18:54:56;95596.81;;;2.61;100.00
23589;BME280;11972;48.078;11.876;2023-03-15T18:58:57;95609.16;;;2.59;100.00
23589;BME280;11972;48.078;11.876;2023-03-15T19:02:59;95615.97;;;2.50;100.00
23589;BME280;11972;48.078;11.876;2023-03-15T19:07:00;95619.88;;;2.56;100.00
23589;BME280;11972;48.078;11.876;2023-03-15T19:11:00;95613.16;;;2.32;100.00
23589;BME280;11972;48.078;11.876;2023-03-15T19:15:02;95624.63;;;1.78;100.00
23589;BME280;11972;48.078;11.876;2023-03-15T19:19:03;95635.22;;;1.65;100.00
23589;BME280;11972;48.078;11.876;2023-03-15T19:23:03;95637.25;;;1.62;100.00
23589;BME280;11972;48.078;11.876;2023-03-15T19:27:04;95638.19;;;1.61;100.00
23589;BME280;11972;48.078;11.876;2023-03-15T19:31:05;95638.88;;;1.63;100.00
23589;BME280;11972;48.078;11.876;2023-03-15T19:35:05;95646.44;;;1.66;100.00
23589;BME280;11972;48.078;11.876;2023-03-15T19:39:06;95651.91;;;1.63;100.00
23589;BME280;11972;48.078;11.876;2023-03-15T19:43:09;95647.31;;;1.55;100.00
23589;BME280;11972;48.078;11.876;2023-03-15T19:47:09;95650.34;;;1.60;100.00
23589;BME280;11972;48.078;11.876;2023-03-15T19:51:10;95644.66;;;1.66;100.00
23589;BME280;11972;48.078;11.876;2023-03-15T19:55:14;95645.69;;;1.75;100.00
23589;BME280;11972;48.078;11.876;2023-03-15T19:59:15;95652.56;;;1.76;100.00
23589;BME280;11972;48.078;11.876;2023-03-15T20:03:15;95653.50;;;1.75;100.00
23589;BME280;11972;48.078;11.876;2023-03-15T20:07:16;95659.16;;;1.80;100.00
23589;BME280;11972;48.078;11.876;2023-03-15T20:11:16;95667.06;;;1.90;100.00
23589;BME280;11972;48.078;11.876;2023-03-15T20:15:24;95676.59;;;2.01;100.00
23589;BME280;11972;48.078;11.876;2023-03-15T20:19:26;95679.63;;;2.06;100.00
23589;BME280;11972;48.078;11.876;2023-03-15T20:23:26;95684.38;;;2.12;100.00
23589;BME280;11972;48.078;11.876;2023-03-15T20:27:30;95671.47;;;2.10;100.00
23589;BME280;11972;48.078;11.876;2023-03-15T20:31:32;95682.72;;;2.11;100.00
23589;BME280;11972;48.078;11.876;2023-03-15T20:35:33;95692.88;;;2.14;100.00
23589;BME280;11972;48.078;11.876;2023-03-15T20:39:34;95691.81;;;2.16;100.00
23589;BME280;11972;48.078;11.876;2023-03-15T20:43:35;95691.22;;;2.13;100.00
23589;BME280;11972;48.078;11.876;2023-03-15T20:47:35;95692.63;;;2.17;100.00
23589;BME280;11972;48.078;11.876;2023-03-15T20:51:37;95699.94;;;2.23;100.00
23589;BME280;11972;48.078;11.876;2023-03-15T20:55:37;95712.66;;;2.16;100.00
23589;BME280;11972;48.078;11.876;2023-03-15T20:59:37;95714.91;;;2.10;100.00
23589;BME280;11972;48.078;11.876;2023-03-15T21:03:39;95715.88;;;2.09;100.00
23589;BME280;11972;48.078;11.876;2023-03-15T21:07:41;95714.69;;;2.13;100.00
23589;BME280;11972;48.078;11.876;2023-03-15T21:11:42;95715.63;;;2.12;100.00
23589;BME280;11972;48.078;11.876;2023-03-15T21:15:43;95714.44;;;2.16;100.00
23589;BME280;11972;48.078;11.876;2023-03-15T21:19:47;95725.22;;;2.11;100.00
23589;BME280;11972;48.078;11.876;2023-03-15T21:23:48;95725.72;;;2.05;100.00
23589;BME280;11972;48.078;11.876;2023-03-15T21:27:48;95724.22;;;2.03;100.00
23589;BME280;11972;48.078;11.876;2023-03-15T21:31:48;95715.16;;;1.86;100.00
23589;BME280;11972;48.078;11.876;2023-03-15T21:35:49;95720.69;;;1.92;100.00
23589;BME280;11972;48.078;11.876;2023-03-15T21:39:50;95720.94;;;1.89;100.00